createdAt,value
2023-03-04T00:01:02.983Z,2.30
2023-03-04T00:02:35.722Z,2.30
2023-03-04T00:04:08.479Z,2.30
2023-03-04T00:05:40.305Z,2.30
2023-03-04T00:07:16.643Z,2.30
2023-03-04T00:08:49.322Z,2.30
2023-03-04T00:10:23.320Z,2.30
2023-03-04T00:11:56.027Z,2.30
2023-03-04T00:13:28.771Z,2.30
2023-03-04T00:15:01.434Z,2.30
2023-03-04T00:16:33.248Z,2.30
2023-03-04T00:18:06.199Z,2.30
2023-03-04T00:19:39.105Z,2.30
2023-03-04T00:21:11.822Z,2.30
2023-03-04T00:22:43.559Z,2.20
2023-03-04T00:24:16.254Z,2.20
2023-03-04T00:25:49.402Z,2.20
2023-03-04T00:27:22.084Z,2.10
2023-03-04T00:28:53.965Z,2.10
2023-03-04T00:30:26.669Z,2.10
2023-03-04T00:31:59.526Z,2.10
2023-03-04T00:33:32.314Z,2.10
2023-03-04T00:35:05.719Z,2.00
2023-03-04T00:36:38.436Z,2.10
2023-03-04T00:38:11.128Z,2.10
2023-03-04T00:39:43.858Z,2.10
2023-03-04T00:41:18.112Z,2.10
2023-03-04T00:42:50.887Z,2.10
2023-03-04T00:44:23.581Z,2.10
2023-03-04T00:45:56.337Z,2.10
2023-03-04T00:47:29.043Z,2.00
2023-03-04T00:49:00.820Z,2.00
2023-03-04T00:50:33.775Z,2.00
2023-03-04T00:52:05.649Z,1.90
2023-03-04T00:53:38.352Z,2.00
2023-03-04T00:55:11.223Z,1.90
2023-03-04T00:56:45.266Z,1.90
2023-03-04T00:58:18.115Z,1.80
2023-03-04T00:59:51.049Z,1.80
2023-03-04T01:01:24.110Z,1.80
2023-03-04T01:02:55.912Z,1.70
2023-03-04T01:04:28.641Z,1.70
2023-03-04T01:06:01.957Z,1.70
2023-03-04T01:07:34.673Z,1.60
2023-03-04T01:09:08.400Z,1.60
2023-03-04T01:10:41.151Z,1.50
2023-03-04T01:12:15.179Z,1.50
2023-03-04T01:13:48.450Z,1.40
2023-03-04T01:15:20.329Z,1.40
2023-03-04T01:16:53.252Z,1.40
2023-03-04T01:18:26.111Z,1.40
2023-03-04T01:19:57.852Z,1.40
2023-03-04T01:21:30.585Z,1.40
2023-03-04T01:23:03.332Z,1.40
2023-03-04T01:24:36.564Z,1.40
2023-03-04T01:26:09.320Z,1.40
2023-03-04T01:27:43.364Z,1.40
2023-03-04T01:29:16.093Z,1.40
2023-03-04T01:30:48.830Z,1.40
2023-03-04T01:32:21.779Z,1.50
2023-03-04T01:33:54.502Z,1.50
2023-03-04T01:35:27.294Z,1.50
2023-03-04T01:36:59.972Z,1.50
2023-03-04T01:38:32.674Z,1.50
2023-03-04T01:40:05.781Z,1.50
2023-03-04T01:41:38.548Z,1.40
2023-03-04T01:43:20.172Z,1.40
2023-03-04T01:44:53.361Z,1.40
2023-03-04T01:46:26.236Z,1.40
2023-03-04T01:47:59.147Z,1.40
2023-03-04T01:49:31.877Z,1.40
2023-03-04T01:51:05.255Z,1.40
2023-03-04T01:52:40.022Z,1.40
2023-03-04T01:54:12.754Z,1.30
2023-03-04T01:55:45.479Z,1.30
2023-03-04T01:57:20.483Z,1.30
2023-03-04T01:59:12.803Z,1.30
2023-03-04T02:00:45.960Z,1.30
2023-03-04T02:02:17.832Z,1.20
2023-03-04T02:03:50.552Z,1.20
2023-03-04T02:05:23.043Z,1.20
2023-03-04T02:06:57.068Z,1.20
2023-03-04T02:08:30.042Z,1.20
2023-03-04T02:10:02.897Z,1.10
2023-03-04T02:11:35.624Z,1.10
2023-03-04T02:13:08.426Z,1.10
2023-03-04T02:14:42.547Z,1.10
2023-03-04T02:16:15.336Z,1.10
2023-03-04T02:17:48.211Z,1.10
2023-03-04T02:19:32.326Z,1.10
2023-03-04T02:21:12.740Z,0.90
2023-03-04T02:22:51.366Z,1.10
2023-03-04T02:24:30.105Z,1.10
2023-03-04T02:26:14.258Z,1.10
2023-03-04T02:27:46.981Z,1.00
2023-03-04T02:29:19.810Z,1.10
2023-03-04T02:30:52.842Z,1.10
2023-03-04T02:32:25.794Z,1.00
2023-03-04T02:34:00.574Z,1.00
2023-03-04T02:35:32.570Z,1.00
2023-03-04T02:37:05.594Z,1.00
2023-03-04T02:38:37.383Z,1.00
2023-03-04T02:40:16.177Z,1.00
2023-03-04T02:41:51.746Z,1.00
2023-03-04T02:43:23.524Z,0.90
2023-03-04T02:45:01.171Z,0.90
2023-03-04T02:46:33.891Z,0.90
2023-03-04T02:48:06.645Z,0.80
2023-03-04T02:49:41.329Z,0.80
2023-03-04T02:51:13.073Z,0.80
2023-03-04T02:52:45.834Z,0.80
2023-03-04T02:54:20.576Z,0.80
2023-03-04T02:55:52.354Z,0.70
2023-03-04T02:57:26.366Z,0.80
2023-03-04T02:58:59.045Z,0.70
2023-03-04T03:00:31.055Z,0.80
2023-03-04T03:02:03.896Z,0.70
2023-03-04T03:03:35.820Z,0.70
2023-03-04T03:05:09.122Z,0.70
2023-03-04T03:06:41.870Z,0.70
2023-03-04T03:08:13.889Z,0.70
2023-03-04T03:09:46.578Z,0.70
2023-03-04T03:11:19.263Z,0.70
2023-03-04T03:12:53.696Z,0.70
2023-03-04T03:14:26.426Z,0.70
2023-03-04T03:15:59.162Z,0.70
2023-03-04T03:17:30.918Z,0.70
2023-03-04T03:19:03.827Z,0.60
2023-03-04T03:20:36.534Z,0.60
2023-03-04T03:22:08.353Z,0.60
2023-03-04T03:23:41.225Z,0.50
2023-03-04T03:25:14.627Z,0.50
2023-03-04T03:26:47.310Z,0.50
2023-03-04T03:28:21.426Z,0.50
2023-03-04T03:29:54.115Z,0.40
2023-03-04T03:31:26.911Z,0.50
2023-03-04T03:32:59.719Z,0.40
2023-03-04T03:34:32.403Z,0.40
2023-03-04T03:36:06.013Z,0.40
2023-03-04T03:37:38.159Z,0.40
2023-03-04T03:39:11.149Z,0.50
2023-03-04T03:40:43.967Z,0.50
2023-03-04T03:42:16.813Z,0.40
2023-03-04T03:43:50.877Z,0.40
2023-03-04T03:45:22.660Z,0.40
2023-03-04T03:46:55.439Z,0.40
2023-03-04T03:48:27.267Z,0.40
2023-03-04T03:50:00.043Z,0.40
2023-03-04T03:51:31.883Z,0.40
2023-03-04T03:53:04.723Z,0.40
2023-03-04T03:54:37.452Z,0.40
2023-03-04T03:56:10.169Z,0.40
2023-03-04T03:57:42.890Z,0.40
2023-03-04T03:59:15.981Z,0.40
2023-03-04T04:00:48.725Z,0.40
2023-03-04T04:02:22.090Z,0.40
2023-03-04T04:03:54.953Z,0.50
2023-03-04T04:05:26.780Z,0.50
2023-03-04T04:06:59.473Z,0.50
2023-03-04T04:08:31.252Z,0.60
2023-03-04T04:10:05.175Z,0.50
2023-03-04T04:11:37.933Z,0.50
2023-03-04T04:13:11.109Z,0.50
2023-03-04T04:14:45.182Z,0.50
2023-03-04T04:16:17.954Z,0.50
2023-03-04T04:17:50.681Z,0.50
2023-03-04T04:19:23.388Z,0.50
2023-03-04T04:20:56.448Z,0.60
2023-03-04T04:22:29.171Z,0.60
2023-03-04T04:24:01.929Z,0.70
2023-03-04T04:25:34.675Z,0.60
2023-03-04T04:27:07.478Z,0.70
2023-03-04T04:28:39.208Z,0.70
2023-03-04T04:30:14.112Z,0.70
2023-03-04T04:31:46.819Z,0.80
2023-03-04T04:33:19.595Z,0.80
2023-03-04T04:34:52.273Z,0.70
2023-03-04T04:36:24.957Z,0.80
2023-03-04T04:37:57.717Z,0.80
2023-03-04T04:39:30.403Z,0.80
2023-03-04T04:41:18.288Z,0.80
2023-03-04T04:42:51.226Z,0.80
2023-03-04T04:44:23.001Z,0.90
2023-03-04T04:45:57.087Z,0.90
2023-03-04T04:47:28.868Z,0.90
2023-03-04T04:49:01.669Z,0.90
2023-03-04T04:50:33.433Z,0.90
2023-03-04T04:52:06.215Z,1.00
2023-03-04T04:53:38.427Z,1.00
2023-03-04T04:55:11.915Z,1.00
2023-03-04T04:56:44.825Z,1.00
2023-03-04T04:58:17.496Z,1.00
2023-03-04T04:59:50.236Z,1.00
2023-03-04T05:01:24.400Z,1.00
2023-03-04T05:02:56.202Z,1.00
2023-03-04T05:04:29.103Z,1.00
2023-03-04T05:06:00.923Z,1.00
2023-03-04T05:07:33.687Z,1.00
2023-03-04T05:09:07.095Z,1.00
2023-03-04T05:10:39.805Z,1.00
2023-03-04T05:12:12.872Z,1.10
2023-03-04T05:13:45.634Z,1.00
2023-03-04T05:15:18.675Z,1.10
2023-03-04T05:16:53.071Z,1.00
2023-03-04T05:18:26.182Z,1.10
2023-03-04T05:19:58.896Z,1.00
2023-03-04T05:21:31.618Z,1.10
2023-03-04T05:23:04.629Z,1.10
2023-03-04T05:24:37.338Z,1.10
2023-03-04T05:26:12.350Z,1.10
2023-03-04T05:27:45.066Z,1.20
2023-03-04T05:29:17.777Z,1.10
2023-03-04T05:30:49.719Z,1.20
2023-03-04T05:32:23.918Z,1.20
2023-03-04T05:33:56.651Z,1.20
2023-03-04T05:35:29.125Z,1.30
2023-03-04T05:37:01.924Z,1.30
2023-03-04T05:38:34.021Z,1.30
2023-03-04T05:40:08.342Z,1.30
2023-03-04T05:41:41.031Z,1.30
2023-03-04T05:43:13.203Z,1.40
2023-03-04T05:44:45.948Z,1.40
2023-03-04T05:46:24.065Z,1.40
2023-03-04T05:47:58.403Z,1.40
2023-03-04T05:49:31.109Z,1.50
2023-03-04T05:51:03.983Z,1.50
2023-03-04T05:52:36.793Z,1.50
2023-03-04T05:54:09.554Z,1.50
2023-03-04T05:55:47.084Z,1.50
2023-03-04T05:57:18.904Z,1.50
2023-03-04T05:58:51.594Z,1.50
2023-03-04T06:00:24.653Z,1.50
2023-03-04T06:01:57.470Z,1.50
2023-03-04T06:03:31.578Z,1.60
2023-03-04T06:05:04.554Z,1.60
2023-03-04T06:06:37.256Z,1.60
2023-03-04T06:08:10.129Z,1.60
2023-03-04T06:09:45.017Z,1.70
2023-03-04T06:11:17.724Z,1.70
2023-03-04T06:12:50.434Z,1.70
2023-03-04T06:14:23.150Z,1.80
2023-03-04T06:15:57.168Z,1.70
2023-03-04T06:17:29.970Z,1.80
2023-03-04T06:19:04.027Z,1.80
2023-03-04T06:20:37.087Z,1.80
2023-03-04T06:22:10.750Z,1.80
2023-03-04T06:23:45.081Z,1.80
2023-03-04T06:25:17.906Z,1.80
2023-03-04T06:26:50.592Z,1.90
2023-03-04T06:28:23.732Z,1.90
2023-03-04T06:29:56.368Z,1.90
2023-03-04T06:31:29.166Z,1.90
2023-03-04T06:33:01.892Z,1.90
2023-03-04T06:34:36.215Z,1.90
2023-03-04T06:36:09.221Z,2.00
2023-03-04T06:37:42.003Z,2.00
2023-03-04T06:39:14.781Z,2.00
2023-03-04T06:40:47.501Z,2.00
2023-03-04T06:42:20.358Z,2.00
2023-03-04T06:43:54.877Z,2.00
2023-03-04T06:45:27.709Z,2.00
2023-03-04T06:47:00.537Z,2.00
2023-03-04T06:48:33.277Z,2.10
2023-03-04T06:50:08.060Z,2.10
2023-03-04T06:51:40.778Z,2.10
2023-03-04T06:53:13.531Z,2.10
2023-03-04T06:54:46.261Z,2.10
2023-03-04T06:56:18.082Z,2.20
2023-03-04T06:57:50.957Z,2.20
2023-03-04T06:59:23.713Z,2.20
2023-03-04T07:00:56.430Z,2.20
2023-03-04T07:02:28.180Z,2.20
2023-03-04T07:04:01.092Z,2.20
2023-03-04T07:05:35.141Z,2.20
2023-03-04T07:07:07.860Z,2.30
2023-03-04T07:08:40.812Z,2.30
2023-03-04T07:10:13.492Z,2.30
2023-03-04T07:11:46.449Z,2.30
2023-03-04T07:13:19.154Z,2.40
2023-03-04T07:14:51.838Z,2.40
2023-03-04T07:16:25.152Z,2.40
2023-03-04T07:17:57.904Z,2.40
2023-03-04T07:19:30.670Z,2.40
2023-03-04T07:21:05.185Z,2.40
2023-03-04T07:22:37.984Z,2.50
2023-03-04T07:24:10.694Z,2.50
2023-03-04T07:25:43.428Z,2.50
2023-03-04T07:27:16.103Z,2.60
2023-03-04T07:28:49.707Z,2.60
2023-03-04T07:30:22.628Z,2.60
2023-03-04T07:31:55.491Z,2.60
2023-03-04T07:33:28.255Z,2.60
2023-03-04T07:35:01.008Z,2.60
2023-03-04T07:36:37.288Z,2.60
2023-03-04T07:38:09.999Z,2.60
2023-03-04T07:39:42.765Z,2.60
2023-03-04T07:41:15.579Z,2.60
2023-03-04T07:42:50.961Z,2.60
2023-03-04T07:44:23.832Z,2.60
2023-03-04T07:46:01.501Z,2.70
2023-03-04T07:47:34.309Z,2.70
2023-03-04T07:49:07.038Z,2.70
2023-03-04T07:50:39.726Z,2.70
2023-03-04T07:52:14.434Z,2.70
2023-03-04T07:53:48.796Z,2.70
2023-03-04T07:55:21.519Z,2.70
2023-03-04T07:56:54.380Z,2.70
2023-03-04T07:58:26.236Z,2.70
2023-03-04T07:59:58.956Z,2.80
2023-03-04T08:01:33.841Z,2.80
2023-03-04T08:03:06.562Z,2.80
2023-03-04T08:04:39.431Z,2.80
2023-03-04T08:06:12.840Z,2.90
2023-03-04T08:07:46.870Z,2.90
2023-03-04T08:09:19.583Z,2.90
2023-03-04T08:10:52.281Z,3.00
2023-03-04T08:12:25.682Z,3.00
2023-03-04T08:13:58.805Z,3.10
2023-03-04T08:15:32.832Z,3.10
2023-03-04T08:17:05.587Z,3.10
2023-03-04T08:18:39.604Z,3.10
2023-03-04T08:20:13.685Z,3.10
2023-03-04T08:21:46.457Z,3.20
2023-03-04T08:23:19.826Z,3.20
2023-03-04T08:24:52.583Z,3.20
2023-03-04T08:26:27.981Z,3.20
2023-03-04T08:28:00.723Z,3.30
2023-03-04T08:29:33.524Z,3.30
2023-03-04T08:31:06.533Z,3.30
2023-03-04T08:32:39.423Z,3.30
2023-03-04T08:34:12.956Z,3.40
2023-03-04T08:35:45.766Z,3.40
2023-03-04T08:37:18.508Z,3.40
2023-03-04T08:38:52.539Z,3.40
2023-03-04T08:40:27.027Z,3.50
2023-03-04T08:41:59.752Z,3.50
2023-03-04T08:43:33.152Z,3.50
2023-03-04T08:45:06.749Z,3.50
2023-03-04T08:46:40.765Z,3.50
2023-03-04T08:48:13.485Z,3.50
2023-03-04T08:49:46.206Z,3.50
2023-03-04T08:51:19.199Z,3.60
2023-03-04T08:52:51.880Z,3.60
2023-03-04T08:54:25.919Z,3.70
2023-03-04T08:55:58.668Z,3.70
2023-03-04T08:57:31.425Z,3.70
2023-03-04T08:59:04.170Z,3.80
2023-03-04T09:00:40.290Z,3.80
2023-03-04T09:02:12.974Z,3.80
2023-03-04T09:03:45.789Z,3.80
2023-03-04T09:05:18.596Z,3.80
2023-03-04T09:06:53.629Z,3.90
2023-03-04T09:08:26.688Z,3.90
2023-03-04T09:10:00.690Z,3.90
2023-03-04T09:11:33.427Z,3.90
2023-03-04T09:13:06.263Z,4.00
2023-03-04T09:14:38.969Z,4.00
2023-03-04T09:16:14.115Z,4.00
2023-03-04T09:17:47.113Z,4.10
2023-03-04T09:19:19.822Z,4.10
2023-03-04T09:20:53.267Z,4.10
2023-03-04T09:22:26.198Z,4.20
2023-03-04T09:23:58.893Z,4.20
2023-03-04T09:25:33.672Z,4.20
2023-03-04T09:27:06.357Z,4.20
2023-03-04T09:28:39.097Z,4.20
2023-03-04T09:30:12.847Z,4.30
2023-03-04T09:31:45.574Z,4.30
2023-03-04T09:33:18.827Z,4.30
2023-03-04T09:34:51.514Z,4.30
2023-03-04T09:36:24.778Z,4.30
2023-03-04T09:37:57.811Z,4.30
2023-03-04T09:39:30.539Z,4.40
2023-03-04T09:41:08.561Z,4.40
2023-03-04T09:42:47.475Z,4.40
2023-03-04T09:44:25.025Z,4.50
2023-03-04T09:46:00.647Z,4.50
2023-03-04T09:47:36.555Z,4.50
2023-03-04T09:49:12.710Z,4.60
2023-03-04T09:50:53.173Z,4.60
2023-03-04T09:52:38.541Z,4.60
2023-03-04T09:54:16.222Z,4.60
2023-03-04T09:55:53.163Z,4.70
2023-03-04T09:57:31.772Z,4.70
2023-03-04T09:59:13.403Z,4.70
2023-03-04T10:00:51.308Z,4.80
2023-03-04T10:02:30.282Z,4.80
2023-03-04T10:04:14.033Z,4.80
2023-03-04T10:05:57.535Z,4.80
2023-03-04T10:07:37.214Z,4.80
2023-03-04T10:09:15.039Z,4.90
2023-03-04T10:10:49.477Z,4.90
2023-03-04T10:12:25.699Z,4.90
2023-03-04T10:14:09.707Z,4.90
2023-03-04T10:15:46.402Z,4.90
2023-03-04T10:17:23.864Z,5.00
2023-03-04T10:18:59.844Z,5.00
2023-03-04T10:20:47.903Z,5.00
2023-03-04T10:22:26.693Z,5.10
2023-03-04T10:24:01.010Z,5.10
2023-03-04T10:25:34.348Z,5.10
2023-03-04T10:27:14.475Z,5.10
2023-03-04T10:28:47.459Z,5.10
2023-03-04T10:30:31.533Z,5.20
2023-03-04T10:32:04.446Z,5.20
2023-03-04T10:33:38.852Z,5.20
2023-03-04T10:35:13.814Z,5.20
2023-03-04T10:36:56.459Z,5.20
2023-03-04T10:38:32.886Z,5.30
2023-03-04T10:40:18.665Z,5.30
2023-03-04T10:42:01.061Z,5.30
2023-03-04T10:43:33.818Z,5.30
2023-03-04T10:45:23.670Z,5.40
2023-03-04T10:46:57.971Z,5.40
2023-03-04T10:48:32.850Z,5.40
2023-03-04T10:50:06.955Z,5.40
2023-03-04T10:51:44.521Z,5.40
2023-03-04T10:53:29.343Z,5.40
2023-03-04T10:55:05.260Z,5.50
2023-03-04T10:56:40.957Z,5.50
2023-03-04T10:58:18.145Z,5.50
2023-03-04T10:59:56.839Z,5.50
2023-03-04T11:01:30.898Z,5.50
2023-03-04T11:03:36.346Z,5.50
2023-03-04T11:05:19.640Z,5.60
2023-03-04T11:06:52.990Z,5.50
2023-03-04T11:08:25.684Z,5.60
2023-03-04T11:10:10.068Z,5.60
2023-03-04T11:11:45.879Z,5.60
2023-03-04T11:13:20.750Z,5.60
2023-03-04T11:14:53.666Z,5.70
2023-03-04T11:16:30.959Z,5.70
2023-03-04T11:18:06.883Z,5.70
2023-03-04T11:19:40.969Z,5.70
2023-03-04T11:21:19.179Z,5.70
2023-03-04T11:22:53.172Z,5.80
2023-03-04T11:24:29.674Z,5.70
2023-03-04T11:26:05.492Z,5.70
2023-03-04T11:27:43.959Z,5.70
2023-03-04T11:29:20.188Z,5.60
2023-03-04T11:30:56.647Z,5.60
2023-03-04T11:32:34.970Z,5.70
2023-03-04T11:34:16.201Z,5.70
2023-03-04T11:35:58.130Z,5.70
2023-03-04T11:37:36.299Z,5.80
2023-03-04T11:39:18.281Z,5.80
2023-03-04T11:40:55.177Z,5.80
2023-03-04T11:42:35.772Z,5.70
2023-03-04T11:44:09.813Z,5.70
2023-03-04T11:46:21.482Z,5.70
2023-03-04T11:48:05.602Z,5.70
2023-03-04T11:50:19.944Z,5.70
2023-03-04T11:52:00.616Z,5.70
2023-03-04T11:53:44.940Z,5.70
2023-03-04T11:55:30.379Z,5.70
2023-03-04T11:57:13.060Z,5.70
2023-03-04T11:59:02.122Z,5.80
2023-03-04T12:00:44.548Z,5.80
2023-03-04T12:02:20.372Z,5.80
2023-03-04T12:04:22.952Z,5.90
2023-03-04T12:06:03.676Z,5.90
2023-03-04T12:07:51.202Z,5.90
2023-03-04T12:09:38.589Z,5.90
2023-03-04T12:11:18.247Z,5.90
2023-03-04T12:13:28.227Z,5.80
2023-03-04T12:15:14.283Z,5.90
2023-03-04T12:17:19.201Z,5.80
2023-03-04T12:19:13.684Z,5.80
2023-03-04T12:20:59.100Z,5.80
2023-03-04T12:22:40.379Z,5.90
2023-03-04T12:24:37.800Z,5.90
2023-03-04T12:26:25.469Z,5.90
2023-03-04T12:28:12.421Z,5.90
2023-03-04T12:29:54.933Z,5.90
2023-03-04T12:31:39.990Z,5.90
2023-03-04T12:33:25.269Z,6.00
2023-03-04T12:35:17.398Z,5.90
2023-03-04T12:37:00.304Z,6.00
2023-03-04T12:38:43.258Z,5.90
2023-03-04T12:40:33.453Z,6.00
2023-03-04T12:42:19.531Z,6.00
2023-03-04T12:43:59.336Z,6.00
2023-03-04T12:45:41.608Z,6.00
2023-03-04T12:47:26.096Z,6.00
2023-03-04T12:49:26.961Z,6.00
2023-03-04T12:51:09.417Z,6.10
2023-03-04T12:52:51.095Z,6.10
2023-03-04T12:54:32.339Z,6.10
2023-03-04T12:56:09.912Z,6.10
2023-03-04T12:57:43.982Z,6.10
2023-03-04T12:59:19.436Z,6.10
2023-03-04T13:00:59.452Z,6.10
2023-03-04T13:02:46.321Z,6.10
2023-03-04T13:04:27.561Z,6.10
2023-03-04T13:06:15.726Z,6.10
2023-03-04T13:07:58.701Z,6.20
2023-03-04T13:09:34.837Z,6.20
2023-03-04T13:11:42.403Z,6.20
2023-03-04T13:13:40.533Z,6.30
2023-03-04T13:15:20.006Z,6.30
2023-03-04T13:16:54.123Z,6.30
2023-03-04T13:18:34.898Z,6.40
2023-03-04T13:20:21.792Z,6.50
2023-03-04T13:21:54.615Z,6.50
2023-03-04T13:23:31.874Z,6.50
2023-03-04T13:25:29.855Z,6.60
2023-03-04T13:27:04.547Z,6.60
2023-03-04T13:28:38.046Z,6.60
2023-03-04T13:30:41.975Z,6.70
2023-03-04T13:32:34.772Z,6.70
2023-03-04T13:34:48.804Z,6.70
2023-03-04T13:36:52.642Z,6.80
2023-03-04T13:38:34.755Z,6.70
2023-03-04T13:40:35.193Z,6.70
2023-03-04T13:42:40.826Z,6.70
2023-03-04T13:44:33.502Z,6.70
2023-03-04T13:46:31.050Z,6.80
2023-03-04T13:48:09.297Z,6.80
2023-03-04T13:49:42.043Z,6.80
2023-03-04T13:51:28.944Z,6.80
2023-03-04T13:53:23.954Z,6.80
2023-03-04T13:55:30.192Z,6.80
2023-03-04T13:57:18.964Z,6.80
2023-03-04T13:58:54.051Z,6.90
2023-03-04T14:00:27.990Z,6.90
2023-03-04T14:02:11.688Z,6.90
2023-03-04T14:03:45.014Z,6.90
2023-03-04T14:05:17.752Z,6.90
2023-03-04T14:06:52.427Z,6.90
2023-03-04T14:08:26.932Z,6.90
2023-03-04T14:10:02.409Z,6.90
2023-03-04T14:11:41.666Z,6.90
2023-03-04T14:13:15.749Z,7.00
2023-03-04T14:14:51.733Z,6.90
2023-03-04T14:16:28.116Z,7.00
2023-03-04T14:18:02.612Z,6.90
2023-03-04T14:19:44.243Z,6.90
2023-03-04T14:21:17.617Z,7.00
2023-03-04T14:22:50.344Z,7.00
2023-03-04T14:24:24.208Z,6.90
2023-03-04T14:26:12.207Z,7.00
2023-03-04T14:27:45.129Z,7.00
2023-03-04T14:29:29.232Z,7.00
2023-03-04T14:31:02.315Z,7.00
2023-03-04T14:32:35.335Z,7.00
2023-03-04T14:34:14.823Z,7.00
2023-03-04T14:35:49.343Z,7.00
2023-03-04T14:37:24.452Z,7.00
2023-03-04T14:38:59.450Z,7.00
2023-03-04T14:40:36.535Z,7.00
2023-03-04T14:42:13.136Z,7.00
2023-03-04T14:43:53.212Z,7.10
2023-03-04T14:45:27.456Z,7.10
2023-03-04T14:47:08.478Z,7.00
2023-03-04T14:48:46.005Z,7.00
2023-03-04T14:50:20.922Z,7.00
2023-03-04T14:51:54.681Z,7.00
2023-03-04T14:53:29.204Z,7.00
2023-03-04T14:55:10.801Z,7.00
2023-03-04T14:56:45.714Z,7.00
2023-03-04T14:58:22.505Z,7.00
2023-03-04T14:59:55.706Z,7.00
2023-03-04T15:01:35.589Z,7.00
2023-03-04T15:03:21.878Z,7.00
2023-03-04T15:04:54.784Z,7.00
2023-03-04T15:06:29.667Z,6.90
2023-03-04T15:08:05.075Z,6.90
2023-03-04T15:09:38.002Z,6.90
2023-03-04T15:11:21.958Z,6.90
2023-03-04T15:12:56.288Z,6.90
2023-03-04T15:14:54.648Z,6.90
2023-03-04T15:16:30.461Z,6.90
2023-03-04T15:18:15.155Z,6.90
2023-03-04T15:19:59.137Z,6.90
2023-03-04T15:21:35.283Z,6.90
2023-03-04T15:23:08.368Z,6.90
2023-03-04T15:24:41.115Z,6.90
2023-03-04T15:26:14.624Z,6.90
2023-03-04T15:27:47.712Z,6.90
2023-03-04T15:29:21.479Z,6.90
2023-03-04T15:30:54.507Z,6.90
2023-03-04T15:32:27.798Z,7.00
2023-03-04T15:34:01.899Z,6.90
2023-03-04T15:35:34.748Z,6.90
2023-03-04T15:37:07.584Z,6.90
2023-03-04T15:38:42.286Z,6.90
2023-03-04T15:40:21.678Z,6.90
2023-03-04T15:41:55.558Z,6.90
2023-03-04T15:43:28.309Z,7.00
2023-03-04T15:45:01.015Z,6.90
2023-03-04T15:46:33.799Z,6.90
2023-03-04T15:48:08.888Z,6.90
2023-03-04T15:49:43.677Z,7.00
2023-03-04T15:51:18.227Z,6.90
2023-03-04T15:52:51.626Z,6.90
2023-03-04T15:54:29.511Z,6.90
2023-03-04T15:56:03.483Z,6.90
2023-03-04T15:57:36.273Z,6.90
2023-03-04T15:59:13.191Z,6.90
2023-03-04T16:00:45.957Z,6.90
2023-03-04T16:02:21.922Z,6.90
2023-03-04T16:03:54.634Z,6.90
2023-03-04T16:05:28.698Z,6.90
2023-03-04T16:07:01.406Z,6.90
2023-03-04T16:08:34.131Z,6.90
2023-03-04T16:10:12.956Z,6.90
2023-03-04T16:11:47.519Z,6.90
2023-03-04T16:13:21.947Z,6.90
2023-03-04T16:14:54.880Z,6.90
2023-03-04T16:16:27.671Z,6.90
2023-03-04T16:18:00.487Z,6.90
2023-03-04T16:19:33.239Z,6.90
2023-03-04T16:21:07.916Z,6.90
2023-03-04T16:22:42.252Z,6.90
2023-03-04T16:24:18.743Z,6.90
2023-03-04T16:25:54.592Z,6.90
2023-03-04T16:27:27.386Z,6.90
2023-03-04T16:29:00.281Z,6.90
2023-03-04T16:30:33.304Z,6.80
2023-03-04T16:32:06.347Z,6.90
2023-03-04T16:33:39.061Z,6.80
2023-03-04T16:35:13.039Z,6.80
2023-03-04T16:36:47.148Z,6.90
2023-03-04T16:38:25.770Z,6.80
2023-03-04T16:39:59.811Z,6.80
2023-03-04T16:41:32.515Z,6.80
2023-03-04T16:43:05.230Z,6.80
2023-03-04T16:44:37.954Z,6.80
2023-03-04T16:46:13.174Z,6.80
2023-03-04T16:47:46.212Z,6.80
2023-03-04T16:49:18.917Z,6.80
2023-03-04T16:50:51.828Z,6.80
2023-03-04T16:52:29.379Z,6.80
2023-03-04T16:54:02.619Z,6.80
2023-03-04T16:55:38.180Z,6.80
2023-03-04T16:57:12.824Z,6.70
2023-03-04T16:58:46.576Z,6.80
2023-03-04T17:00:21.732Z,6.70
2023-03-04T17:01:55.226Z,6.70
2023-03-04T17:03:28.062Z,6.70
2023-03-04T17:05:00.854Z,6.80
2023-03-04T17:06:34.337Z,6.70
2023-03-04T17:08:08.448Z,6.70
2023-03-04T17:09:41.248Z,6.70
2023-03-04T17:11:16.583Z,6.70
2023-03-04T17:12:49.902Z,6.70
2023-03-04T17:14:22.833Z,6.70
2023-03-04T17:15:55.678Z,6.70
2023-03-04T17:17:28.417Z,6.70
2023-03-04T17:19:01.327Z,6.70
2023-03-04T17:20:34.031Z,6.70
2023-03-04T17:22:06.715Z,6.70
2023-03-04T17:23:40.797Z,6.70
2023-03-04T17:25:14.771Z,6.70
2023-03-04T17:26:47.631Z,6.70
2023-03-04T17:28:20.311Z,6.70
2023-03-04T17:29:54.929Z,6.70
2023-03-04T17:31:27.775Z,6.60
2023-03-04T17:33:00.573Z,6.60
2023-03-04T17:34:33.575Z,6.60
2023-03-04T17:36:06.950Z,6.60
2023-03-04T17:37:39.666Z,6.50
2023-03-04T17:39:13.962Z,6.50
2023-03-04T17:40:46.734Z,6.50
2023-03-04T17:42:19.636Z,6.50
2023-03-04T17:43:54.435Z,6.50
2023-03-04T17:45:27.249Z,6.50
2023-03-04T17:46:59.934Z,6.50
2023-03-04T17:48:32.641Z,6.50
2023-03-04T17:50:06.574Z,6.50
2023-03-04T17:51:40.547Z,6.50
2023-03-04T17:53:13.240Z,6.50
2023-03-04T17:54:47.738Z,6.50
2023-03-04T17:56:20.447Z,6.40
2023-03-04T17:57:55.421Z,6.40
2023-03-04T17:59:28.142Z,6.40
2023-03-04T18:01:05.904Z,6.40
2023-03-04T18:02:38.633Z,6.40
2023-03-04T18:04:11.481Z,6.40
2023-03-04T18:05:44.356Z,6.40
2023-03-04T18:07:17.067Z,6.40
2023-03-04T18:08:50.078Z,6.40
2023-03-04T18:10:24.087Z,6.40
2023-03-04T18:11:56.836Z,6.40
2023-03-04T18:13:29.555Z,6.40
2023-03-04T18:15:02.240Z,6.40
2023-03-04T18:16:35.319Z,6.40
2023-03-04T18:18:08.254Z,6.40
2023-03-04T18:19:41.083Z,6.40
2023-03-04T18:21:14.461Z,6.40
2023-03-04T18:22:47.223Z,6.40
2023-03-04T18:24:19.942Z,6.40
2023-03-04T18:25:54.100Z,6.40
2023-03-04T18:27:27.793Z,6.40
2023-03-04T18:29:00.499Z,6.40
2023-03-04T18:30:33.409Z,6.40
2023-03-04T18:32:06.923Z,6.40
2023-03-04T18:33:40.581Z,6.40
2023-03-04T18:35:13.901Z,6.40
2023-03-04T18:36:47.552Z,6.40
2023-03-04T18:38:20.702Z,6.40
2023-03-04T18:39:53.372Z,6.40
2023-03-04T18:41:28.244Z,6.40
2023-03-04T18:43:01.054Z,6.40
2023-03-04T18:44:33.775Z,6.40
2023-03-04T18:46:08.420Z,6.40
2023-03-04T18:47:42.802Z,6.30
2023-03-04T18:49:16.309Z,6.40
2023-03-04T18:50:50.037Z,6.40
2023-03-04T18:52:23.772Z,6.40
2023-03-04T18:53:56.456Z,6.40
2023-03-04T18:55:29.209Z,6.40
2023-03-04T18:57:06.945Z,6.40
2023-03-04T18:58:41.161Z,6.40
2023-03-04T19:00:17.796Z,6.40
2023-03-04T19:01:51.816Z,6.40
2023-03-04T19:03:24.891Z,6.40
2023-03-04T19:05:02.608Z,6.30
2023-03-04T19:06:35.583Z,6.40
2023-03-04T19:08:08.308Z,6.40
2023-03-04T19:09:40.991Z,6.40
2023-03-04T19:11:14.583Z,6.40
2023-03-04T19:12:48.658Z,6.40
2023-03-04T19:14:21.401Z,6.30
2023-03-04T19:15:55.241Z,6.30
2023-03-04T19:17:31.775Z,6.30
2023-03-04T19:19:04.559Z,6.30
2023-03-04T19:20:37.884Z,6.30
2023-03-04T19:22:10.602Z,6.30
2023-03-04T19:23:43.362Z,6.30
2023-03-04T19:25:16.116Z,6.30
2023-03-04T19:26:48.811Z,6.20
2023-03-04T19:28:24.136Z,6.20
2023-03-04T19:29:56.813Z,6.20
2023-03-04T19:31:29.546Z,6.20
2023-03-04T19:33:02.982Z,6.20
2023-03-04T19:34:35.685Z,6.20
2023-03-04T19:36:10.170Z,6.20
2023-03-04T19:37:42.899Z,6.20
2023-03-04T19:39:18.314Z,6.20
2023-03-04T19:40:51.039Z,6.20
2023-03-04T19:42:24.388Z,6.20
2023-03-04T19:43:58.658Z,6.10
2023-03-04T19:45:31.467Z,6.20
2023-03-04T19:47:04.600Z,6.20
2023-03-04T19:48:37.983Z,6.10
2023-03-04T19:50:13.248Z,6.10
2023-03-04T19:51:46.139Z,6.10
2023-03-04T19:53:19.288Z,6.10
2023-03-04T19:54:52.054Z,6.10
2023-03-04T19:56:25.116Z,6.20
2023-03-04T19:57:57.809Z,6.10
2023-03-04T19:59:31.839Z,6.10
2023-03-04T20:01:04.926Z,6.20
2023-03-04T20:02:37.870Z,6.10
2023-03-04T20:04:12.722Z,6.20
2023-03-04T20:05:46.342Z,6.20
2023-03-04T20:07:19.133Z,6.20
2023-03-04T20:08:52.212Z,6.20
2023-03-04T20:10:24.930Z,6.20
2023-03-04T20:11:59.446Z,6.20
2023-03-04T20:13:32.302Z,6.20
2023-03-04T20:15:08.533Z,6.20
2023-03-04T20:16:41.594Z,6.20
2023-03-04T20:18:14.293Z,6.20
2023-03-04T20:19:47.425Z,6.10
2023-03-04T20:21:20.401Z,6.10
2023-03-04T20:22:53.119Z,6.10
2023-03-04T20:24:26.193Z,6.10
2023-03-04T20:25:58.929Z,6.10
2023-03-04T20:27:31.644Z,6.20
2023-03-04T20:29:04.341Z,6.20
2023-03-04T20:30:39.097Z,6.10
2023-03-04T20:32:11.803Z,6.20
2023-03-04T20:33:44.951Z,6.10
2023-03-04T20:35:18.004Z,6.20
2023-03-04T20:36:50.770Z,6.20
2023-03-04T20:38:23.481Z,6.20
2023-03-04T20:39:57.357Z,6.20
2023-03-04T20:41:30.205Z,6.20
2023-03-04T20:43:05.388Z,6.20
2023-03-04T20:44:38.082Z,6.20
2023-03-04T20:46:29.191Z,6.20
2023-03-04T20:48:01.947Z,6.20
2023-03-04T20:49:35.113Z,6.10
2023-03-04T20:51:07.845Z,6.10
2023-03-04T20:52:40.530Z,6.10
2023-03-04T20:54:13.238Z,6.10
2023-03-04T20:55:45.923Z,6.10
2023-03-04T20:57:18.940Z,6.10
2023-03-04T20:58:52.424Z,6.10
2023-03-04T21:00:25.323Z,6.10
2023-03-04T21:01:59.845Z,6.10
2023-03-04T21:03:32.764Z,6.10
2023-03-04T21:05:06.047Z,6.00
2023-03-04T21:06:39.511Z,6.10
2023-03-04T21:08:13.316Z,6.10
2023-03-04T21:09:46.028Z,6.00
2023-03-04T21:11:20.351Z,6.10